sensor_id;sensor_type;location;lat;lon;timestamp;P1;durP1;ratioP1;P2;durP2;ratioP2
44694;SDS011;32845;59.422;17.930;2023-07-08T00:03:08;4.28;;;1.33;;
44694;SDS011;32845;59.422;17.930;2023-07-08T00:07:39;3.45;;;0.95;;
44694;SDS011;32845;59.422;17.930;2023-07-08T00:12:11;2.65;;;1.10;;
44694;SDS011;32845;59.422;17.930;2023-07-08T00:16:41;2.72;;;1.50;;
44694;SDS011;32845;59.422;17.930;2023-07-08T00:21:13;3.53;;;1.55;;
44694;SDS011;32845;59.422;17.930;2023-07-08T00:25:45;6.90;;;1.33;;
44694;SDS011;32845;59.422;17.930;2023-07-08T00:34:54;2.15;;;1.40;;
44694;SDS011;32845;59.422;17.930;2023-07-08T00:39:25;6.65;;;0.90;;
44694;SDS011;32845;59.422;17.930;2023-07-08T00:43:56;2.75;;;1.45;;
44694;SDS011;32845;59.422;17.930;2023-07-08T00:48:32;2.80;;;1.33;;
44694;SDS011;32845;59.422;17.930;2023-07-08T00:57:55;2.22;;;1.27;;
44694;SDS011;32845;59.422;17.930;2023-07-08T01:02:26;1.50;;;1.10;;
44694;SDS011;32845;59.422;17.930;2023-07-08T01:06:58;2.13;;;1.50;;
44694;SDS011;32845;59.422;17.930;2023-07-08T01:11:30;3.17;;;1.35;;
44694;SDS011;32845;59.422;17.930;2023-07-08T01:16:01;2.42;;;1.30;;
44694;SDS011;32845;59.422;17.930;2023-07-08T01:20:33;2.88;;;1.10;;
44694;SDS011;32845;59.422;17.930;2023-07-08T01:25:04;11.73;;;1.35;;
44694;SDS011;32845;59.422;17.930;2023-07-08T01:29:35;6.30;;;1.83;;
44694;SDS011;32845;59.422;17.930;2023-07-08T01:34:08;6.60;;;1.48;;
44694;SDS011;32845;59.422;17.930;2023-07-08T01:38:40;1.83;;;1.42;;
44694;SDS011;32845;59.422;17.930;2023-07-08T01:43:12;3.42;;;1.40;;
44694;SDS011;32845;59.422;17.930;2023-07-08T01:47:43;2.22;;;1.33;;
44694;SDS011;32845;59.422;17.930;2023-07-08T01:52:21;3.75;;;1.70;;
44694;SDS011;32845;59.422;17.930;2023-07-08T01:56:55;3.20;;;1.50;;
44694;SDS011;32845;59.422;17.930;2023-07-08T02:01:26;5.63;;;1.80;;
44694;SDS011;32845;59.422;17.930;2023-07-08T02:05:57;8.88;;;2.05;;
44694;SDS011;32845;59.422;17.930;2023-07-08T02:10:29;4.22;;;1.48;;
44694;SDS011;32845;59.422;17.930;2023-07-08T02:14:59;1.70;;;1.45;;
44694;SDS011;32845;59.422;17.930;2023-07-08T02:19:30;3.90;;;1.35;;
44694;SDS011;32845;59.422;17.930;2023-07-08T02:24:01;4.40;;;1.50;;
44694;SDS011;32845;59.422;17.930;2023-07-08T02:28:32;2.83;;;1.80;;
44694;SDS011;32845;59.422;17.930;2023-07-08T02:33:02;5.43;;;1.40;;
44694;SDS011;32845;59.422;17.930;2023-07-08T02:37:33;3.72;;;1.58;;
44694;SDS011;32845;59.422;17.930;2023-07-08T02:42:04;3.17;;;1.58;;
44694;SDS011;32845;59.422;17.930;2023-07-08T02:46:34;4.00;;;1.77;;
44694;SDS011;32845;59.422;17.930;2023-07-08T02:51:05;3.53;;;2.00;;
44694;SDS011;32845;59.422;17.930;2023-07-08T02:55:39;5.50;;;1.70;;
44694;SDS011;32845;59.422;17.930;2023-07-08T03:00:09;2.80;;;1.58;;
44694;SDS011;32845;59.422;17.930;2023-07-08T03:04:41;2.97;;;1.58;;
44694;SDS011;32845;59.422;17.930;2023-07-08T03:09:12;2.92;;;1.73;;
44694;SDS011;32845;59.422;17.930;2023-07-08T03:13:43;2.97;;;1.70;;
44694;SDS011;32845;59.422;17.930;2023-07-08T03:18:13;4.07;;;1.75;;
44694;SDS011;32845;59.422;17.930;2023-07-08T03:22:44;5.28;;;1.80;;
44694;SDS011;32845;59.422;17.930;2023-07-08T03:27:14;4.93;;;1.90;;
44694;SDS011;32845;59.422;17.930;2023-07-08T03:31:45;2.90;;;1.90;;
44694;SDS011;32845;59.422;17.930;2023-07-08T03:36:16;4.25;;;2.00;;
44694;SDS011;32845;59.422;17.930;2023-07-08T03:40:54;3.42;;;1.85;;
44694;SDS011;32845;59.422;17.930;2023-07-08T03:45:25;2.58;;;1.80;;
44694;SDS011;32845;59.422;17.930;2023-07-08T03:49:55;6.55;;;2.15;;
44694;SDS011;32845;59.422;17.930;2023-07-08T03:54:26;6.13;;;2.10;;
44694;SDS011;32845;59.422;17.930;2023-07-08T03:58:57;4.57;;;2.03;;
44694;SDS011;32845;59.422;17.930;2023-07-08T04:03:27;4.13;;;2.10;;
44694;SDS011;32845;59.422;17.930;2023-07-08T04:07:58;2.78;;;1.98;;
44694;SDS011;32845;59.422;17.930;2023-07-08T04:12:28;3.90;;;1.83;;
44694;SDS011;32845;59.422;17.930;2023-07-08T04:16:59;7.75;;;1.80;;
44694;SDS011;32845;59.422;17.930;2023-07-08T04:21:30;5.10;;;2.20;;
44694;SDS011;32845;59.422;17.930;2023-07-08T04:26:00;3.45;;;2.28;;
44694;SDS011;32845;59.422;17.930;2023-07-08T04:30:31;5.88;;;2.10;;
44694;SDS011;32845;59.422;17.930;2023-07-08T04:35:02;4.75;;;2.25;;
44694;SDS011;32845;59.422;17.930;2023-07-08T04:39:33;3.58;;;2.38;;
44694;SDS011;32845;59.422;17.930;2023-07-08T04:44:03;3.45;;;2.30;;
44694;SDS011;32845;59.422;17.930;2023-07-08T04:48:34;2.70;;;1.83;;
44694;SDS011;32845;59.422;17.930;2023-07-08T04:53:05;5.75;;;2.33;;
44694;SDS011;32845;59.422;17.930;2023-07-08T04:57:35;2.58;;;2.20;;
44694;SDS011;32845;59.422;17.930;2023-07-08T05:02:06;6.47;;;2.45;;
44694;SDS011;32845;59.422;17.930;2023-07-08T05:06:36;5.25;;;2.25;;
44694;SDS011;32845;59.422;17.930;2023-07-08T05:11:07;3.50;;;2.22;;
44694;SDS011;32845;59.422;17.930;2023-07-08T05:15:38;2.67;;;2.20;;
44694;SDS011;32845;59.422;17.930;2023-07-08T05:20:10;10.57;;;2.38;;
44694;SDS011;32845;59.422;17.930;2023-07-08T05:24:42;4.22;;;2.30;;
44694;SDS011;32845;59.422;17.930;2023-07-08T05:29:13;7.50;;;2.70;;
44694;SDS011;32845;59.422;17.930;2023-07-08T05:33:44;3.85;;;2.75;;
44694;SDS011;32845;59.422;17.930;2023-07-08T05:38:14;3.45;;;2.38;;
44694;SDS011;32845;59.422;17.930;2023-07-08T05:42:45;6.82;;;2.33;;
44694;SDS011;32845;59.422;17.930;2023-07-08T05:47:15;5.13;;;2.60;;
44694;SDS011;32845;59.422;17.930;2023-07-08T05:51:47;3.60;;;2.40;;
44694;SDS011;32845;59.422;17.930;2023-07-08T05:56:17;6.57;;;2.95;;
44694;SDS011;32845;59.422;17.930;2023-07-08T06:00:54;4.32;;;2.50;;
44694;SDS011;32845;59.422;17.930;2023-07-08T06:05:26;5.28;;;3.15;;
44694;SDS011;32845;59.422;17.930;2023-07-08T06:09:57;5.55;;;3.00;;
44694;SDS011;32845;59.422;17.930;2023-07-08T06:14:28;4.50;;;2.70;;
44694;SDS011;32845;59.422;17.930;2023-07-08T06:18:58;4.22;;;2.67;;
44694;SDS011;32845;59.422;17.930;2023-07-08T06:23:29;4.15;;;2.78;;
44694;SDS011;32845;59.422;17.930;2023-07-08T06:28:00;6.07;;;2.85;;
44694;SDS011;32845;59.422;17.930;2023-07-08T06:32:30;8.50;;;2.72;;
44694;SDS011;32845;59.422;17.930;2023-07-08T06:37:01;3.92;;;2.78;;
44694;SDS011;32845;59.422;17.930;2023-07-08T06:41:31;6.78;;;2.90;;
44694;SDS011;32845;59.422;17.930;2023-07-08T06:46:02;4.75;;;2.70;;
44694;SDS011;32845;59.422;17.930;2023-07-08T06:50:33;4.32;;;2.60;;
44694;SDS011;32845;59.422;17.930;2023-07-08T06:55:05;14.23;;;4.22;;
44694;SDS011;32845;59.422;17.930;2023-07-08T06:59:37;4.05;;;2.70;;
44694;SDS011;32845;59.422;17.930;2023-07-08T07:04:08;5.10;;;2.80;;
44694;SDS011;32845;59.422;17.930;2023-07-08T07:08:38;3.63;;;2.70;;
44694;SDS011;32845;59.422;17.930;2023-07-08T07:13:09;15.68;;;2.85;;
44694;SDS011;32845;59.422;17.930;2023-07-08T07:17:39;6.55;;;3.00;;
44694;SDS011;32845;59.422;17.930;2023-07-08T07:22:10;3.95;;;2.60;;
44694;SDS011;32845;59.422;17.930;2023-07-08T07:26:41;4.13;;;2.63;;
44694;SDS011;32845;59.422;17.930;2023-07-08T07:31:11;5.15;;;2.78;;
44694;SDS011;32845;59.422;17.930;2023-07-08T07:35:43;6.95;;;2.45;;
44694;SDS011;32845;59.422;17.930;2023-07-08T07:40:14;15.18;;;2.63;;
44694;SDS011;32845;59.422;17.930;2023-07-08T07:44:45;4.47;;;2.53;;
44694;SDS011;32845;59.422;17.930;2023-07-08T07:49:16;5.03;;;2.67;;
44694;SDS011;32845;59.422;17.930;2023-07-08T07:53:46;4.15;;;2.72;;
44694;SDS011;32845;59.422;17.930;2023-07-08T07:58:17;6.55;;;2.70;;
44694;SDS011;32845;59.422;17.930;2023-07-08T08:02:47;5.50;;;3.15;;
44694;SDS011;32845;59.422;17.930;2023-07-08T08:07:18;3.28;;;2.42;;
44694;SDS011;32845;59.422;17.930;2023-07-08T08:11:49;6.28;;;3.30;;
44694;SDS011;32845;59.422;17.930;2023-07-08T08:16:21;4.93;;;3.05;;
44694;SDS011;32845;59.422;17.930;2023-07-08T08:20:52;7.28;;;3.25;;
44694;SDS011;32845;59.422;17.930;2023-07-08T08:25:23;10.45;;;3.95;;
44694;SDS011;32845;59.422;17.930;2023-07-08T08:29:54;5.53;;;2.97;;
44694;SDS011;32845;59.422;17.930;2023-07-08T08:34:25;3.75;;;2.92;;
44694;SDS011;32845;59.422;17.930;2023-07-08T08:38:56;4.93;;;2.67;;
44694;SDS011;32845;59.422;17.930;2023-07-08T08:43:34;5.80;;;2.90;;
44694;SDS011;32845;59.422;17.930;2023-07-08T08:48:10;8.50;;;2.80;;
44694;SDS011;32845;59.422;17.930;2023-07-08T08:52:43;6.47;;;3.00;;
44694;SDS011;32845;59.422;17.930;2023-07-08T08:57:17;4.70;;;2.60;;
44694;SDS011;32845;59.422;17.930;2023-07-08T09:02:01;8.02;;;2.40;;
44694;SDS011;32845;59.422;17.930;2023-07-08T09:06:53;8.02;;;2.80;;
44694;SDS011;32845;59.422;17.930;2023-07-08T09:20:46;6.13;;;2.35;;
44694;SDS011;32845;59.422;17.930;2023-07-08T09:25:29;8.07;;;2.90;;
44694;SDS011;32845;59.422;17.930;2023-07-08T09:30:09;5.28;;;2.30;;
44694;SDS011;32845;59.422;17.930;2023-07-08T09:34:54;4.70;;;2.73;;
44694;SDS011;32845;59.422;17.930;2023-07-08T09:39:35;5.55;;;2.55;;
44694;SDS011;32845;59.422;17.930;2023-07-08T09:44:11;5.68;;;2.58;;
44694;SDS011;32845;59.422;17.930;2023-07-08T09:48:43;4.77;;;2.40;;
44694;SDS011;32845;59.422;17.930;2023-07-08T09:53:14;6.70;;;2.75;;
44694;SDS011;32845;59.422;17.930;2023-07-08T09:57:45;4.40;;;2.35;;
44694;SDS011;32845;59.422;17.930;2023-07-08T10:07:10;2.92;;;2.20;;
44694;SDS011;32845;59.422;17.930;2023-07-08T10:11:58;6.45;;;2.95;;
44694;SDS011;32845;59.422;17.930;2023-07-08T10:16:32;7.70;;;2.60;;
44694;SDS011;32845;59.422;17.930;2023-07-08T10:21:21;6.35;;;2.50;;
44694;SDS011;32845;59.422;17.930;2023-07-08T10:26:00;4.88;;;2.50;;
44694;SDS011;32845;59.422;17.930;2023-07-08T10:31:30;7.03;;;2.45;;
44694;SDS011;32845;59.422;17.930;2023-07-08T10:40:52;11.80;;;2.97;;
44694;SDS011;32845;59.422;17.930;2023-07-08T10:50:26;4.30;;;2.20;;
44694;SDS011;32845;59.422;17.930;2023-07-08T11:08:58;5.07;;;2.45;;
44694;SDS011;32845;59.422;17.930;2023-07-08T11:13:32;7.45;;;2.60;;
44694;SDS011;32845;59.422;17.930;2023-07-08T11:18:16;4.43;;;2.50;;
44694;SDS011;32845;59.422;17.930;2023-07-08T11:23:00;2.97;;;2.10;;
44694;SDS011;32845;59.422;17.930;2023-07-08T11:27:53;6.63;;;2.35;;
44694;SDS011;32845;59.422;17.930;2023-07-08T11:32:26;3.30;;;2.13;;
44694;SDS011;32845;59.422;17.930;2023-07-08T11:36:59;5.43;;;2.58;;
44694;SDS011;32845;59.422;17.930;2023-07-08T11:41:31;4.03;;;2.53;;
44694;SDS011;32845;59.422;17.930;2023-07-08T11:46:03;4.85;;;2.50;;
44694;SDS011;32845;59.422;17.930;2023-07-08T11:50:37;4.13;;;2.42;;
44694;SDS011;32845;59.422;17.930;2023-07-08T11:55:22;4.15;;;2.45;;
44694;SDS011;32845;59.422;17.930;2023-07-08T12:04:56;4.38;;;2.13;;
44694;SDS011;32845;59.422;17.930;2023-07-08T12:09:35;3.63;;;2.50;;
44694;SDS011;32845;59.422;17.930;2023-07-08T12:14:08;5.20;;;2.78;;
44694;SDS011;32845;59.422;17.930;2023-07-08T12:18:39;3.10;;;2.00;;
44694;SDS011;32845;59.422;17.930;2023-07-08T12:23:18;4.45;;;2.13;;
44694;SDS011;32845;59.422;17.930;2023-07-08T12:27:51;4.72;;;2.00;;
44694;SDS011;32845;59.422;17.930;2023-07-08T12:32:21;4.03;;;2.20;;
44694;SDS011;32845;59.422;17.930;2023-07-08T12:36:55;5.85;;;2.45;;
44694;SDS011;32845;59.422;17.930;2023-07-08T12:46:04;2.88;;;2.20;;
44694;SDS011;32845;59.422;17.930;2023-07-08T12:50:35;3.50;;;2.45;;
44694;SDS011;32845;59.422;17.930;2023-07-08T12:55:07;4.03;;;2.13;;
44694;SDS011;32845;59.422;17.930;2023-07-08T12:59:39;2.33;;;1.90;;
44694;SDS011;32845;59.422;17.930;2023-07-08T13:04:10;3.58;;;1.98;;
44694;SDS011;32845;59.422;17.930;2023-07-08T13:08:42;2.85;;;2.10;;
44694;SDS011;32845;59.422;17.930;2023-07-08T13:13:16;4.05;;;1.67;;
44694;SDS011;32845;59.422;17.930;2023-07-08T13:17:53;3.33;;;2.17;;
44694;SDS011;32845;59.422;17.930;2023-07-08T13:22:24;3.75;;;2.40;;
44694;SDS011;32845;59.422;17.930;2023-07-08T13:26:55;3.30;;;2.03;;
44694;SDS011;32845;59.422;17.930;2023-07-08T13:31:31;3.90;;;2.20;;
44694;SDS011;32845;59.422;17.930;2023-07-08T13:36:04;4.73;;;2.30;;
44694;SDS011;32845;59.422;17.930;2023-07-08T13:40:35;6.43;;;2.08;;
44694;SDS011;32845;59.422;17.930;2023-07-08T13:45:12;8.95;;;2.22;;
44694;SDS011;32845;59.422;17.930;2023-07-08T13:49:50;5.63;;;2.05;;
44694;SDS011;32845;59.422;17.930;2023-07-08T13:59:25;10.77;;;1.92;;
44694;SDS011;32845;59.422;17.930;2023-07-08T14:03:56;3.10;;;2.00;;
44694;SDS011;32845;59.422;17.930;2023-07-08T14:08:27;4.82;;;1.92;;
44694;SDS011;32845;59.422;17.930;2023-07-08T14:12:57;2.47;;;1.85;;
44694;SDS011;32845;59.422;17.930;2023-07-08T14:17:28;1.95;;;1.75;;
44694;SDS011;32845;59.422;17.930;2023-07-08T14:26:44;8.82;;;1.95;;
44694;SDS011;32845;59.422;17.930;2023-07-08T14:31:17;3.00;;;1.98;;
44694;SDS011;32845;59.422;17.930;2023-07-08T14:35:52;4.03;;;1.90;;
44694;SDS011;32845;59.422;17.930;2023-07-08T14:44:57;2.95;;;1.83;;
44694;SDS011;32845;59.422;17.930;2023-07-08T14:49:28;2.80;;;1.70;;
44694;SDS011;32845;59.422;17.930;2023-07-08T14:53:59;3.50;;;1.70;;
44694;SDS011;32845;59.422;17.930;2023-07-08T14:58:30;3.33;;;1.60;;
44694;SDS011;32845;59.422;17.930;2023-07-08T15:03:02;2.42;;;1.50;;
44694;SDS011;32845;59.422;17.930;2023-07-08T15:07:35;1.83;;;1.42;;
44694;SDS011;32845;59.422;17.930;2023-07-08T15:12:08;2.05;;;1.58;;
44694;SDS011;32845;59.422;17.930;2023-07-08T15:16:40;1.50;;;1.30;;
44694;SDS011;32845;59.422;17.930;2023-07-08T15:21:14;4.68;;;1.70;;
44694;SDS011;32845;59.422;17.930;2023-07-08T15:25:45;8.82;;;2.00;;
44694;SDS011;32845;59.422;17.930;2023-07-08T15:30:22;2.15;;;1.45;;
44694;SDS011;32845;59.422;17.930;2023-07-08T15:34:54;2.38;;;1.60;;
44694;SDS011;32845;59.422;17.930;2023-07-08T15:39:25;2.28;;;1.60;;
44694;SDS011;32845;59.422;17.930;2023-07-08T15:43:56;3.60;;;1.73;;
44694;SDS011;32845;59.422;17.930;2023-07-08T15:48:27;4.63;;;1.40;;
44694;SDS011;32845;59.422;17.930;2023-07-08T15:52:57;1.85;;;1.33;;
44694;SDS011;32845;59.422;17.930;2023-07-08T15:57:28;1.92;;;1.50;;
44694;SDS011;32845;59.422;17.930;2023-07-08T16:02:00;2.35;;;1.75;;
44694;SDS011;32845;59.422;17.930;2023-07-08T16:06:42;2.60;;;1.58;;
44694;SDS011;32845;59.422;17.930;2023-07-08T16:11:17;3.60;;;1.83;;
44694;SDS011;32845;59.422;17.930;2023-07-08T16:15:53;3.25;;;2.13;;
44694;SDS011;32845;59.422;17.930;2023-07-08T16:20:26;3.95;;;2.10;;
44694;SDS011;32845;59.422;17.930;2023-07-08T16:24:57;3.28;;;1.75;;
44694;SDS011;32845;59.422;17.930;2023-07-08T16:29:28;3.80;;;1.85;;
44694;SDS011;32845;59.422;17.930;2023-07-08T16:34:04;2.55;;;1.75;;
44694;SDS011;32845;59.422;17.930;2023-07-08T16:38:35;6.47;;;1.80;;
44694;SDS011;32845;59.422;17.930;2023-07-08T16:43:08;3.33;;;1.63;;
44694;SDS011;32845;59.422;17.930;2023-07-08T16:47:51;2.92;;;1.88;;
44694;SDS011;32845;59.422;17.930;2023-07-08T16:52:23;4.65;;;1.65;;
44694;SDS011;32845;59.422;17.930;2023-07-08T16:56:53;2.25;;;1.60;;
44694;SDS011;32845;59.422;17.930;2023-07-08T17:01:29;2.50;;;1.73;;
44694;SDS011;32845;59.422;17.930;2023-07-08T17:06:00;3.97;;;1.38;;
44694;SDS011;32845;59.422;17.930;2023-07-08T17:10:32;2.00;;;1.42;;
44694;SDS011;32845;59.422;17.930;2023-07-08T17:15:02;2.47;;;1.73;;
44694;SDS011;32845;59.422;17.930;2023-07-08T17:19:33;2.42;;;1.30;;
44694;SDS011;32845;59.422;17.930;2023-07-08T17:24:09;1.92;;;1.40;;
44694;SDS011;32845;59.422;17.930;2023-07-08T17:28:40;2.08;;;1.48;;
44694;SDS011;32845;59.422;17.930;2023-07-08T17:33:13;2.13;;;1.55;;
44694;SDS011;32845;59.422;17.930;2023-07-08T17:37:45;3.40;;;1.85;;
44694;SDS011;32845;59.422;17.930;2023-07-08T17:42:16;2.40;;;1.30;;
44694;SDS011;32845;59.422;17.930;2023-07-08T17:46:46;3.25;;;1.75;;
44694;SDS011;32845;59.422;17.930;2023-07-08T17:51:21;2.03;;;1.38;;
44694;SDS011;32845;59.422;17.930;2023-07-08T17:56:00;4.07;;;2.15;;
44694;SDS011;32845;59.422;17.930;2023-07-08T18:00:31;4.32;;;1.33;;
44694;SDS011;32845;59.422;17.930;2023-07-08T18:05:01;1.92;;;1.45;;
44694;SDS011;32845;59.422;17.930;2023-07-08T18:09:32;3.35;;;1.35;;
44694;SDS011;32845;59.422;17.930;2023-07-08T18:14:03;2.55;;;1.50;;
44694;SDS011;32845;59.422;17.930;2023-07-08T18:18:34;1.88;;;1.42;;
44694;SDS011;32845;59.422;17.930;2023-07-08T18:23:06;2.60;;;1.38;;
44694;SDS011;32845;59.422;17.930;2023-07-08T18:27:45;8.45;;;1.85;;
44694;SDS011;32845;59.422;17.930;2023-07-08T18:32:15;9.50;;;1.40;;
44694;SDS011;32845;59.422;17.930;2023-07-08T18:36:46;3.47;;;1.50;;
44694;SDS011;32845;59.422;17.930;2023-07-08T18:41:18;2.80;;;1.50;;
44694;SDS011;32845;59.422;17.930;2023-07-08T18:45:51;8.70;;;3.10;;
44694;SDS011;32845;59.422;17.930;2023-07-08T18:50:22;4.15;;;3.08;;
44694;SDS011;32845;59.422;17.930;2023-07-08T18:54:56;4.30;;;1.90;;
44694;SDS011;32845;59.422;17.930;2023-07-08T18:59:26;6.20;;;1.90;;
44694;SDS011;32845;59.422;17.930;2023-07-08T19:03:57;4.60;;;2.60;;
44694;SDS011;32845;59.422;17.930;2023-07-08T19:08:28;4.18;;;2.72;;
44694;SDS011;32845;59.422;17.930;2023-07-08T19:12:58;7.07;;;1.90;;
44694;SDS011;32845;59.422;17.930;2023-07-08T19:17:29;2.55;;;1.45;;
44694;SDS011;32845;59.422;17.930;2023-07-08T19:22:00;2.45;;;1.83;;
44694;SDS011;32845;59.422;17.930;2023-07-08T19:26:32;3.40;;;1.45;;
44694;SDS011;32845;59.422;17.930;2023-07-08T19:31:03;5.20;;;1.88;;
44694;SDS011;32845;59.422;17.930;2023-07-08T19:35:35;2.85;;;1.88;;
44694;SDS011;32845;59.422;17.930;2023-07-08T19:40:11;2.30;;;1.60;;
44694;SDS011;32845;59.422;17.930;2023-07-08T19:44:43;3.22;;;1.90;;
44694;SDS011;32845;59.422;17.930;2023-07-08T19:49:14;3.13;;;1.67;;
44694;SDS011;32845;59.422;17.930;2023-07-08T19:53:45;2.22;;;1.73;;
44694;SDS011;32845;59.422;17.930;2023-07-08T19:58:15;2.50;;;2.00;;
44694;SDS011;32845;59.422;17.930;2023-07-08T20:02:46;2.85;;;1.75;;
44694;SDS011;32845;59.422;17.930;2023-07-08T20:07:17;4.93;;;1.85;;
44694;SDS011;32845;59.422;17.930;2023-07-08T20:11:48;1.88;;;1.45;;
44694;SDS011;32845;59.422;17.930;2023-07-08T20:16:20;6.78;;;1.80;;
44694;SDS011;32845;59.422;17.930;2023-07-08T20:20:56;4.78;;;1.75;;
44694;SDS011;32845;59.422;17.930;2023-07-08T20:25:29;3.30;;;1.88;;
44694;SDS011;32845;59.422;17.930;2023-07-08T20:30:00;3.25;;;1.50;;
44694;SDS011;32845;59.422;17.930;2023-07-08T20:34:31;4.05;;;1.88;;
44694;SDS011;32845;59.422;17.930;2023-07-08T20:39:02;6.28;;;1.90;;
44694;SDS011;32845;59.422;17.930;2023-07-08T20:43:33;4.53;;;1.90;;
44694;SDS011;32845;59.422;17.930;2023-07-08T20:48:04;4.68;;;2.13;;
44694;SDS011;32845;59.422;17.930;2023-07-08T20:52:42;3.78;;;1.77;;
44694;SDS011;32845;59.422;17.930;2023-07-08T20:57:13;2.95;;;1.65;;
44694;SDS011;32845;59.422;17.930;2023-07-08T21:01:46;10.40;;;2.42;;
44694;SDS011;32845;59.422;17.930;2023-07-08T21:06:21;1.95;;;1.63;;
44694;SDS011;32845;59.422;17.930;2023-07-08T21:10:54;5.60;;;2.00;;
44694;SDS011;32845;59.422;17.930;2023-07-08T21:15:27;3.17;;;2.03;;
44694;SDS011;32845;59.422;17.930;2023-07-08T21:20:02;2.90;;;1.75;;
44694;SDS011;32845;59.422;17.930;2023-07-08T21:24:33;3.65;;;2.00;;
44694;SDS011;32845;59.422;17.930;2023-07-08T21:29:03;3.67;;;2.00;;
44694;SDS011;32845;59.422;17.930;2023-07-08T21:33:34;3.53;;;2.10;;
44694;SDS011;32845;59.422;17.930;2023-07-08T21:38:05;8.98;;;2.63;;
44694;SDS011;32845;59.422;17.930;2023-07-08T21:42:38;2.60;;;2.25;;
44694;SDS011;32845;59.422;17.930;2023-07-08T21:47:08;5.32;;;2.10;;
44694;SDS011;32845;59.422;17.930;2023-07-08T21:51:39;2.20;;;1.80;;
44694;SDS011;32845;59.422;17.930;2023-07-08T21:56:10;4.30;;;2.17;;
44694;SDS011;32845;59.422;17.930;2023-07-08T22:00:41;3.92;;;2.42;;
44694;SDS011;32845;59.422;17.930;2023-07-08T22:05:13;4.47;;;2.47;;
44694;SDS011;32845;59.422;17.930;2023-07-08T22:09:45;3.17;;;2.10;;
44694;SDS011;32845;59.422;17.930;2023-07-08T22:14:16;2.67;;;2.08;;
44694;SDS011;32845;59.422;17.930;2023-07-08T22:18:46;3.40;;;2.00;;
44694;SDS011;32845;59.422;17.930;2023-07-08T22:23:18;4.00;;;2.25;;
44694;SDS011;32845;59.422;17.930;2023-07-08T22:27:49;5.68;;;1.85;;
44694;SDS011;32845;59.422;17.930;2023-07-08T22:32:20;2.53;;;1.80;;
44694;SDS011;32845;59.422;17.930;2023-07-08T22:36:50;2.83;;;1.77;;
44694;SDS011;32845;59.422;17.930;2023-07-08T22:41:21;6.55;;;1.80;;
44694;SDS011;32845;59.422;17.930;2023-07-08T22:45:52;5.63;;;1.90;;
44694;SDS011;32845;59.422;17.930;2023-07-08T22:50:24;2.17;;;1.40;;
44694;SDS011;32845;59.422;17.930;2023-07-08T22:54:56;2.50;;;1.73;;
44694;SDS011;32845;59.422;17.930;2023-07-08T22:59:27;5.53;;;1.52;;
44694;SDS011;32845;59.422;17.930;2023-07-08T23:03:58;9.95;;;1.60;;
44694;SDS011;32845;59.422;17.930;2023-07-08T23:08:30;5.38;;;1.50;;
44694;SDS011;32845;59.422;17.930;2023-07-08T23:13:03;2.80;;;1.20;;
44694;SDS011;32845;59.422;17.930;2023-07-08T23:17:35;3.47;;;1.40;;
44694;SDS011;32845;59.422;17.930;2023-07-08T23:22:19;3.95;;;1.42;;
44694;SDS011;32845;59.422;17.930;2023-07-08T23:26:50;13.55;;;1.70;;
44694;SDS011;32845;59.422;17.930;2023-07-08T23:31:21;2.92;;;1.60;;
44694;SDS011;32845;59.422;17.930;2023-07-08T23:35:53;2.17;;;1.45;;
44694;SDS011;32845;59.422;17.930;2023-07-08T23:40:23;4.30;;;1.55;;
44694;SDS011;32845;59.422;17.930;2023-07-08T23:44:54;1.55;;;1.20;;
44694;SDS011;32845;59.422;17.930;2023-07-08T23:49:32;2.65;;;1.30;;
44694;SDS011;32845;59.422;17.930;2023-07-08T23:54:06;1.73;;;1.33;;
44694;SDS011;32845;59.422;17.930;2023-07-08T23:58:47;3.65;;;1.20;;
